sensor_id;sensor_type;location;lat;lon;timestamp;P1;durP1;ratioP1;P2;durP2;ratioP2
13793;SDS011;31160;49.500;7.772;2024-01-07T00:00:08;3.83;;;2.80;;
13793;SDS011;31160;49.500;7.772;2024-01-07T00:02:35;3.57;;;2.77;;
13793;SDS011;31160;49.500;7.772;2024-01-07T00:05:02;4.30;;;2.80;;
13793;SDS011;31160;49.500;7.772;2024-01-07T00:07:29;4.20;;;3.20;;
13793;SDS011;31160;49.500;7.772;2024-01-07T00:09:56;3.33;;;2.43;;
13793;SDS011;31160;49.500;7.772;2024-01-07T00:12:23;3.87;;;2.73;;
13793;SDS011;31160;49.500;7.772;2024-01-07T00:14:51;3.93;;;2.87;;
13793;SDS011;31160;49.500;7.772;2024-01-07T00:17:17;3.67;;;2.63;;
13793;SDS011;31160;49.500;7.772;2024-01-07T00:19:44;4.10;;;2.83;;
13793;SDS011;31160;49.500;7.772;2024-01-07T00:22:11;3.50;;;2.60;;
13793;SDS011;31160;49.500;7.772;2024-01-07T00:24:38;3.83;;;2.87;;
13793;SDS011;31160;49.500;7.772;2024-01-07T00:27:05;4.03;;;3.40;;
13793;SDS011;31160;49.500;7.772;2024-01-07T00:29:31;3.83;;;2.90;;
13793;SDS011;31160;49.500;7.772;2024-01-07T00:32:01;4.07;;;3.13;;
13793;SDS011;31160;49.500;7.772;2024-01-07T00:34:28;3.37;;;2.63;;
13793;SDS011;31160;49.500;7.772;2024-01-07T00:36:55;4.27;;;3.00;;
13793;SDS011;31160;49.500;7.772;2024-01-07T00:39:22;5.00;;;3.43;;
13793;SDS011;31160;49.500;7.772;2024-01-07T00:41:49;4.03;;;3.40;;
13793;SDS011;31160;49.500;7.772;2024-01-07T00:44:16;3.67;;;3.00;;
13793;SDS011;31160;49.500;7.772;2024-01-07T00:46:42;3.87;;;2.80;;
13793;SDS011;31160;49.500;7.772;2024-01-07T00:49:14;4.33;;;3.00;;
13793;SDS011;31160;49.500;7.772;2024-01-07T00:51:40;4.10;;;3.00;;
13793;SDS011;31160;49.500;7.772;2024-01-07T00:54:07;4.47;;;3.00;;
13793;SDS011;31160;49.500;7.772;2024-01-07T00:56:34;4.60;;;3.10;;
13793;SDS011;31160;49.500;7.772;2024-01-07T00:59:01;3.37;;;2.77;;
13793;SDS011;31160;49.500;7.772;2024-01-07T01:01:28;3.43;;;2.53;;
13793;SDS011;31160;49.500;7.772;2024-01-07T01:03:55;4.57;;;3.20;;
13793;SDS011;31160;49.500;7.772;2024-01-07T01:06:24;4.47;;;3.03;;
13793;SDS011;31160;49.500;7.772;2024-01-07T01:08:51;4.77;;;3.50;;
13793;SDS011;31160;49.500;7.772;2024-01-07T01:11:17;4.10;;;2.97;;
13793;SDS011;31160;49.500;7.772;2024-01-07T01:13:44;6.20;;;4.03;;
13793;SDS011;31160;49.500;7.772;2024-01-07T01:16:11;6.47;;;4.17;;
13793;SDS011;31160;49.500;7.772;2024-01-07T01:18:37;4.47;;;3.40;;
13793;SDS011;31160;49.500;7.772;2024-01-07T01:21:04;4.83;;;3.50;;
13793;SDS011;31160;49.500;7.772;2024-01-07T01:23:31;4.97;;;4.20;;
13793;SDS011;31160;49.500;7.772;2024-01-07T01:25:58;5.23;;;3.73;;
13793;SDS011;31160;49.500;7.772;2024-01-07T01:28:25;4.30;;;3.33;;
13793;SDS011;31160;49.500;7.772;2024-01-07T01:30:51;5.70;;;4.13;;
13793;SDS011;31160;49.500;7.772;2024-01-07T01:33:18;5.50;;;3.77;;
13793;SDS011;31160;49.500;7.772;2024-01-07T01:35:45;5.70;;;4.13;;
13793;SDS011;31160;49.500;7.772;2024-01-07T01:38:12;7.10;;;4.27;;
13793;SDS011;31160;49.500;7.772;2024-01-07T01:40:39;5.97;;;4.33;;
13793;SDS011;31160;49.500;7.772;2024-01-07T01:43:05;7.03;;;4.80;;
13793;SDS011;31160;49.500;7.772;2024-01-07T01:45:32;5.33;;;3.93;;
13793;SDS011;31160;49.500;7.772;2024-01-07T01:47:59;6.37;;;4.20;;
13793;SDS011;31160;49.500;7.772;2024-01-07T01:50:26;6.27;;;5.00;;
13793;SDS011;31160;49.500;7.772;2024-01-07T01:52:55;7.97;;;5.60;;
13793;SDS011;31160;49.500;7.772;2024-01-07T01:55:22;6.03;;;4.60;;
13793;SDS011;31160;49.500;7.772;2024-01-07T01:57:49;5.20;;;4.17;;
13793;SDS011;31160;49.500;7.772;2024-01-07T02:00:18;6.63;;;4.70;;
13793;SDS011;31160;49.500;7.772;2024-01-07T02:02:44;6.33;;;4.70;;
13793;SDS011;31160;49.500;7.772;2024-01-07T02:05:11;6.10;;;4.17;;
13793;SDS011;31160;49.500;7.772;2024-01-07T02:07:40;13.10;;;7.17;;
13793;SDS011;31160;49.500;7.772;2024-01-07T02:10:08;10.43;;;5.90;;
13793;SDS011;31160;49.500;7.772;2024-01-07T02:12:35;14.13;;;7.13;;
13793;SDS011;31160;49.500;7.772;2024-01-07T02:15:02;6.43;;;3.73;;
13793;SDS011;31160;49.500;7.772;2024-01-07T02:17:29;6.17;;;4.20;;
13793;SDS011;31160;49.500;7.772;2024-01-07T02:19:55;4.93;;;3.50;;
13793;SDS011;31160;49.500;7.772;2024-01-07T02:22:22;5.80;;;3.70;;
13793;SDS011;31160;49.500;7.772;2024-01-07T02:24:49;7.37;;;4.43;;
13793;SDS011;31160;49.500;7.772;2024-01-07T02:27:16;10.63;;;6.30;;
13793;SDS011;31160;49.500;7.772;2024-01-07T02:29:43;5.43;;;3.70;;
13793;SDS011;31160;49.500;7.772;2024-01-07T02:32:09;7.20;;;4.47;;
13793;SDS011;31160;49.500;7.772;2024-01-07T02:34:36;11.40;;;5.50;;
13793;SDS011;31160;49.500;7.772;2024-01-07T02:37:03;31.67;;;9.83;;
13793;SDS011;31160;49.500;7.772;2024-01-07T02:39:30;42.87;;;11.77;;
13793;SDS011;31160;49.500;7.772;2024-01-07T02:41:57;9.67;;;4.90;;
13793;SDS011;31160;49.500;7.772;2024-01-07T02:44:23;14.10;;;5.77;;
13793;SDS011;31160;49.500;7.772;2024-01-07T02:46:50;18.77;;;6.67;;
13793;SDS011;31160;49.500;7.772;2024-01-07T02:49:18;8.13;;;4.63;;
13793;SDS011;31160;49.500;7.772;2024-01-07T02:51:45;6.73;;;4.37;;
13793;SDS011;31160;49.500;7.772;2024-01-07T02:54:16;6.50;;;4.67;;
13793;SDS011;31160;49.500;7.772;2024-01-07T02:56:43;9.50;;;4.60;;
13793;SDS011;31160;49.500;7.772;2024-01-07T02:59:10;12.50;;;5.10;;
13793;SDS011;31160;49.500;7.772;2024-01-07T03:01:37;15.20;;;5.47;;
13793;SDS011;31160;49.500;7.772;2024-01-07T03:04:07;6.70;;;4.20;;
13793;SDS011;31160;49.500;7.772;2024-01-07T03:06:36;9.37;;;5.03;;
13793;SDS011;31160;49.500;7.772;2024-01-07T03:09:03;5.90;;;4.23;;
13793;SDS011;31160;49.500;7.772;2024-01-07T03:11:30;6.83;;;4.17;;
13793;SDS011;31160;49.500;7.772;2024-01-07T03:13:57;10.53;;;5.27;;
13793;SDS011;31160;49.500;7.772;2024-01-07T03:16:25;7.47;;;4.30;;
13793;SDS011;31160;49.500;7.772;2024-01-07T03:18:53;9.97;;;5.00;;
13793;SDS011;31160;49.500;7.772;2024-01-07T03:21:21;7.30;;;4.97;;
13793;SDS011;31160;49.500;7.772;2024-01-07T03:23:50;5.83;;;4.57;;
13793;SDS011;31160;49.500;7.772;2024-01-07T03:26:18;7.73;;;5.10;;
13793;SDS011;31160;49.500;7.772;2024-01-07T03:28:46;6.27;;;4.47;;
13793;SDS011;31160;49.500;7.772;2024-01-07T03:31:14;9.17;;;6.13;;
13793;SDS011;31160;49.500;7.772;2024-01-07T03:33:43;10.77;;;7.27;;
13793;SDS011;31160;49.500;7.772;2024-01-07T03:36:11;10.97;;;7.70;;
13793;SDS011;31160;49.500;7.772;2024-01-07T03:38:40;7.13;;;5.30;;
13793;SDS011;31160;49.500;7.772;2024-01-07T03:41:08;5.07;;;4.27;;
13793;SDS011;31160;49.500;7.772;2024-01-07T03:43:35;5.57;;;4.20;;
13793;SDS011;31160;49.500;7.772;2024-01-07T03:46:02;5.43;;;4.40;;
13793;SDS011;31160;49.500;7.772;2024-01-07T03:48:30;5.50;;;4.10;;
13793;SDS011;31160;49.500;7.772;2024-01-07T03:50:57;5.80;;;3.97;;
13793;SDS011;31160;49.500;7.772;2024-01-07T03:53:24;5.70;;;4.20;;
13793;SDS011;31160;49.500;7.772;2024-01-07T03:55:51;5.93;;;4.27;;
13793;SDS011;31160;49.500;7.772;2024-01-07T03:58:18;5.60;;;4.00;;
13793;SDS011;31160;49.500;7.772;2024-01-07T04:00:45;5.93;;;4.53;;
13793;SDS011;31160;49.500;7.772;2024-01-07T04:03:13;6.80;;;5.00;;
13793;SDS011;31160;49.500;7.772;2024-01-07T04:05:40;4.83;;;3.60;;
13793;SDS011;31160;49.500;7.772;2024-01-07T04:08:11;4.53;;;3.57;;
13793;SDS011;31160;49.500;7.772;2024-01-07T04:10:39;4.77;;;3.63;;
13793;SDS011;31160;49.500;7.772;2024-01-07T04:13:07;4.60;;;3.70;;
13793;SDS011;31160;49.500;7.772;2024-01-07T04:15:34;5.37;;;3.90;;
13793;SDS011;31160;49.500;7.772;2024-01-07T04:18:03;4.90;;;3.43;;
13793;SDS011;31160;49.500;7.772;2024-01-07T04:20:32;5.37;;;4.07;;
13793;SDS011;31160;49.500;7.772;2024-01-07T04:23:00;4.13;;;3.33;;
13793;SDS011;31160;49.500;7.772;2024-01-07T04:25:28;5.83;;;3.80;;
13793;SDS011;31160;49.500;7.772;2024-01-07T04:27:55;5.37;;;3.83;;
13793;SDS011;31160;49.500;7.772;2024-01-07T04:30:22;5.03;;;3.70;;
13793;SDS011;31160;49.500;7.772;2024-01-07T04:32:54;6.33;;;3.80;;
13793;SDS011;31160;49.500;7.772;2024-01-07T04:35:21;6.20;;;4.37;;
13793;SDS011;31160;49.500;7.772;2024-01-07T04:37:49;5.00;;;3.40;;
13793;SDS011;31160;49.500;7.772;2024-01-07T04:40:17;5.23;;;3.77;;
13793;SDS011;31160;49.500;7.772;2024-01-07T04:42:45;6.07;;;3.60;;
13793;SDS011;31160;49.500;7.772;2024-01-07T04:45:12;4.73;;;3.50;;
13793;SDS011;31160;49.500;7.772;2024-01-07T04:47:39;5.33;;;3.50;;
13793;SDS011;31160;49.500;7.772;2024-01-07T04:50:07;4.97;;;3.30;;
13793;SDS011;31160;49.500;7.772;2024-01-07T04:52:35;7.00;;;3.63;;
13793;SDS011;31160;49.500;7.772;2024-01-07T04:55:02;5.20;;;3.80;;
13793;SDS011;31160;49.500;7.772;2024-01-07T04:57:29;4.27;;;3.43;;
13793;SDS011;31160;49.500;7.772;2024-01-07T04:59:57;3.70;;;3.10;;
13793;SDS011;31160;49.500;7.772;2024-01-07T05:02:24;4.63;;;3.03;;
13793;SDS011;31160;49.500;7.772;2024-01-07T05:04:51;6.63;;;3.13;;
13793;SDS011;31160;49.500;7.772;2024-01-07T05:07:19;4.57;;;3.03;;
13793;SDS011;31160;49.500;7.772;2024-01-07T05:09:47;5.03;;;3.27;;
13793;SDS011;31160;49.500;7.772;2024-01-07T05:12:14;3.93;;;3.17;;
13793;SDS011;31160;49.500;7.772;2024-01-07T05:14:41;5.63;;;3.23;;
13793;SDS011;31160;49.500;7.772;2024-01-07T05:17:10;4.83;;;3.27;;
13793;SDS011;31160;49.500;7.772;2024-01-07T05:19:40;4.07;;;3.07;;
13793;SDS011;31160;49.500;7.772;2024-01-07T05:22:08;4.87;;;3.30;;
13793;SDS011;31160;49.500;7.772;2024-01-07T05:24:37;9.53;;;3.03;;
13793;SDS011;31160;49.500;7.772;2024-01-07T05:27:08;6.10;;;3.00;;
13793;SDS011;31160;49.500;7.772;2024-01-07T05:29:35;4.97;;;3.33;;
13793;SDS011;31160;49.500;7.772;2024-01-07T05:32:03;3.73;;;2.90;;
13793;SDS011;31160;49.500;7.772;2024-01-07T05:34:31;3.60;;;2.97;;
13793;SDS011;31160;49.500;7.772;2024-01-07T05:36:58;3.20;;;2.77;;
13793;SDS011;31160;49.500;7.772;2024-01-07T05:39:25;5.73;;;2.97;;
13793;SDS011;31160;49.500;7.772;2024-01-07T05:41:52;4.73;;;3.17;;
13793;SDS011;31160;49.500;7.772;2024-01-07T05:44:18;4.73;;;3.17;;
13793;SDS011;31160;49.500;7.772;2024-01-07T05:46:45;6.07;;;3.73;;
13793;SDS011;31160;49.500;7.772;2024-01-07T05:49:12;6.80;;;3.97;;
13793;SDS011;31160;49.500;7.772;2024-01-07T05:51:42;6.43;;;3.60;;
13793;SDS011;31160;49.500;7.772;2024-01-07T05:54:08;4.67;;;3.50;;
13793;SDS011;31160;49.500;7.772;2024-01-07T05:56:38;5.63;;;4.27;;
13793;SDS011;31160;49.500;7.772;2024-01-07T05:59:07;4.53;;;3.60;;
13793;SDS011;31160;49.500;7.772;2024-01-07T06:01:34;5.97;;;4.07;;
13793;SDS011;31160;49.500;7.772;2024-01-07T06:04:01;6.07;;;4.10;;
13793;SDS011;31160;49.500;7.772;2024-01-07T06:06:28;6.33;;;4.23;;
13793;SDS011;31160;49.500;7.772;2024-01-07T06:08:55;4.87;;;3.60;;
13793;SDS011;31160;49.500;7.772;2024-01-07T06:11:22;6.23;;;3.77;;
13793;SDS011;31160;49.500;7.772;2024-01-07T06:13:49;6.27;;;4.23;;
13793;SDS011;31160;49.500;7.772;2024-01-07T06:16:15;7.63;;;4.87;;
13793;SDS011;31160;49.500;7.772;2024-01-07T06:18:42;7.83;;;3.87;;
13793;SDS011;31160;49.500;7.772;2024-01-07T06:21:09;6.93;;;4.53;;
13793;SDS011;31160;49.500;7.772;2024-01-07T06:23:36;5.13;;;4.03;;
13793;SDS011;31160;49.500;7.772;2024-01-07T06:26:03;5.83;;;4.27;;
13793;SDS011;31160;49.500;7.772;2024-01-07T06:28:29;5.77;;;4.20;;
13793;SDS011;31160;49.500;7.772;2024-01-07T06:30:56;6.30;;;4.37;;
13793;SDS011;31160;49.500;7.772;2024-01-07T06:33:25;6.83;;;4.60;;
13793;SDS011;31160;49.500;7.772;2024-01-07T06:35:53;5.43;;;3.90;;
13793;SDS011;31160;49.500;7.772;2024-01-07T06:38:19;6.43;;;4.73;;
13793;SDS011;31160;49.500;7.772;2024-01-07T06:40:46;6.27;;;3.90;;
13793;SDS011;31160;49.500;7.772;2024-01-07T06:43:13;7.13;;;4.47;;
13793;SDS011;31160;49.500;7.772;2024-01-07T06:45:40;7.93;;;4.47;;
13793;SDS011;31160;49.500;7.772;2024-01-07T06:48:07;7.00;;;4.47;;
13793;SDS011;31160;49.500;7.772;2024-01-07T06:50:34;6.03;;;4.27;;
13793;SDS011;31160;49.500;7.772;2024-01-07T06:53:00;6.87;;;4.30;;
13793;SDS011;31160;49.500;7.772;2024-01-07T06:55:27;6.33;;;4.73;;
13793;SDS011;31160;49.500;7.772;2024-01-07T06:57:54;7.27;;;4.60;;
13793;SDS011;31160;49.500;7.772;2024-01-07T07:00:21;7.60;;;4.60;;
13793;SDS011;31160;49.500;7.772;2024-01-07T07:02:48;7.23;;;5.13;;
13793;SDS011;31160;49.500;7.772;2024-01-07T07:05:15;7.10;;;5.00;;
13793;SDS011;31160;49.500;7.772;2024-01-07T07:07:42;7.80;;;5.27;;
13793;SDS011;31160;49.500;7.772;2024-01-07T07:10:08;9.87;;;5.80;;
13793;SDS011;31160;49.500;7.772;2024-01-07T07:12:35;9.73;;;5.60;;
13793;SDS011;31160;49.500;7.772;2024-01-07T07:15:02;8.53;;;4.97;;
13793;SDS011;31160;49.500;7.772;2024-01-07T07:17:29;9.70;;;5.40;;
13793;SDS011;31160;49.500;7.772;2024-01-07T07:19:56;7.90;;;4.90;;
13793;SDS011;31160;49.500;7.772;2024-01-07T07:22:23;7.93;;;4.83;;
13793;SDS011;31160;49.500;7.772;2024-01-07T07:24:50;6.90;;;4.57;;
13793;SDS011;31160;49.500;7.772;2024-01-07T07:27:17;9.40;;;5.77;;
13793;SDS011;31160;49.500;7.772;2024-01-07T07:29:43;8.20;;;5.50;;
13793;SDS011;31160;49.500;7.772;2024-01-07T07:32:10;7.63;;;5.47;;
13793;SDS011;31160;49.500;7.772;2024-01-07T07:34:37;8.70;;;5.70;;
13793;SDS011;31160;49.500;7.772;2024-01-07T07:37:04;7.90;;;5.10;;
13793;SDS011;31160;49.500;7.772;2024-01-07T07:39:30;8.00;;;5.53;;
13793;SDS011;31160;49.500;7.772;2024-01-07T07:41:57;9.33;;;5.07;;
13793;SDS011;31160;49.500;7.772;2024-01-07T07:44:25;7.93;;;5.20;;
13793;SDS011;31160;49.500;7.772;2024-01-07T07:46:52;7.60;;;4.87;;
13793;SDS011;31160;49.500;7.772;2024-01-07T07:49:19;7.87;;;4.70;;
13793;SDS011;31160;49.500;7.772;2024-01-07T07:51:46;7.20;;;4.70;;
13793;SDS011;31160;49.500;7.772;2024-01-07T07:54:12;8.30;;;5.20;;
13793;SDS011;31160;49.500;7.772;2024-01-07T07:56:39;8.80;;;5.07;;
13793;SDS011;31160;49.500;7.772;2024-01-07T07:59:06;7.90;;;5.13;;
13793;SDS011;31160;49.500;7.772;2024-01-07T08:01:35;7.13;;;5.00;;
13793;SDS011;31160;49.500;7.772;2024-01-07T08:04:01;8.13;;;5.30;;
13793;SDS011;31160;49.500;7.772;2024-01-07T08:06:29;7.00;;;4.77;;
13793;SDS011;31160;49.500;7.772;2024-01-07T08:08:56;7.20;;;4.73;;
13793;SDS011;31160;49.500;7.772;2024-01-07T08:11:22;6.47;;;4.93;;
13793;SDS011;31160;49.500;7.772;2024-01-07T08:13:49;8.50;;;5.57;;
13793;SDS011;31160;49.500;7.772;2024-01-07T08:16:16;6.83;;;4.83;;
13793;SDS011;31160;49.500;7.772;2024-01-07T08:18:43;7.63;;;5.17;;
13793;SDS011;31160;49.500;7.772;2024-01-07T08:21:09;7.23;;;4.90;;
13793;SDS011;31160;49.500;7.772;2024-01-07T08:23:36;7.60;;;5.10;;
13793;SDS011;31160;49.500;7.772;2024-01-07T08:26:03;7.87;;;4.67;;
13793;SDS011;31160;49.500;7.772;2024-01-07T08:28:31;8.57;;;5.50;;
13793;SDS011;31160;49.500;7.772;2024-01-07T08:30:57;8.83;;;5.00;;
13793;SDS011;31160;49.500;7.772;2024-01-07T08:33:25;7.37;;;4.97;;
13793;SDS011;31160;49.500;7.772;2024-01-07T08:35:52;8.97;;;5.57;;
13793;SDS011;31160;49.500;7.772;2024-01-07T08:38:18;6.67;;;4.90;;
13793;SDS011;31160;49.500;7.772;2024-01-07T08:40:45;6.50;;;4.83;;
13793;SDS011;31160;49.500;7.772;2024-01-07T08:43:12;6.97;;;5.00;;
13793;SDS011;31160;49.500;7.772;2024-01-07T08:45:39;7.60;;;4.80;;
13793;SDS011;31160;49.500;7.772;2024-01-07T08:48:06;7.80;;;5.13;;
13793;SDS011;31160;49.500;7.772;2024-01-07T08:50:33;8.10;;;5.10;;
13793;SDS011;31160;49.500;7.772;2024-01-07T08:53:00;6.73;;;4.13;;
13793;SDS011;31160;49.500;7.772;2024-01-07T08:55:31;6.67;;;4.20;;
13793;SDS011;31160;49.500;7.772;2024-01-07T08:57:57;7.17;;;4.33;;
13793;SDS011;31160;49.500;7.772;2024-01-07T09:00:25;6.50;;;4.40;;
13793;SDS011;31160;49.500;7.772;2024-01-07T09:02:53;8.67;;;5.33;;
13793;SDS011;31160;49.500;7.772;2024-01-07T09:05:20;5.50;;;4.13;;
13793;SDS011;31160;49.500;7.772;2024-01-07T09:07:46;6.07;;;4.53;;
13793;SDS011;31160;49.500;7.772;2024-01-07T09:10:13;7.40;;;4.53;;
13793;SDS011;31160;49.500;7.772;2024-01-07T09:12:40;7.63;;;4.83;;
13793;SDS011;31160;49.500;7.772;2024-01-07T09:15:07;7.33;;;5.13;;
13793;SDS011;31160;49.500;7.772;2024-01-07T09:17:37;8.87;;;4.40;;
13793;SDS011;31160;49.500;7.772;2024-01-07T09:20:04;6.50;;;4.03;;
13793;SDS011;31160;49.500;7.772;2024-01-07T09:22:34;5.77;;;4.07;;
13793;SDS011;31160;49.500;7.772;2024-01-07T09:25:02;7.00;;;4.50;;
13793;SDS011;31160;49.500;7.772;2024-01-07T09:27:30;6.30;;;4.50;;
13793;SDS011;31160;49.500;7.772;2024-01-07T09:29:57;6.30;;;4.20;;
13793;SDS011;31160;49.500;7.772;2024-01-07T09:32:24;5.20;;;4.20;;
13793;SDS011;31160;49.500;7.772;2024-01-07T09:34:50;5.97;;;4.30;;
13793;SDS011;31160;49.500;7.772;2024-01-07T09:37:18;5.23;;;3.67;;
13793;SDS011;31160;49.500;7.772;2024-01-07T09:39:45;6.20;;;4.27;;
13793;SDS011;31160;49.500;7.772;2024-01-07T09:42:12;6.60;;;4.17;;
13793;SDS011;31160;49.500;7.772;2024-01-07T09:44:40;5.63;;;4.17;;
13793;SDS011;31160;49.500;7.772;2024-01-07T09:47:10;6.57;;;4.33;;
13793;SDS011;31160;49.500;7.772;2024-01-07T09:49:41;7.30;;;4.00;;
13793;SDS011;31160;49.500;7.772;2024-01-07T09:52:09;6.10;;;4.10;;
13793;SDS011;31160;49.500;7.772;2024-01-07T09:54:37;6.80;;;4.57;;
13793;SDS011;31160;49.500;7.772;2024-01-07T09:57:05;7.17;;;4.97;;
13793;SDS011;31160;49.500;7.772;2024-01-07T09:59:36;6.93;;;4.47;;
13793;SDS011;31160;49.500;7.772;2024-01-07T10:02:03;6.90;;;4.20;;
13793;SDS011;31160;49.500;7.772;2024-01-07T10:04:30;5.67;;;4.07;;
13793;SDS011;31160;49.500;7.772;2024-01-07T10:06:57;5.13;;;3.73;;
13793;SDS011;31160;49.500;7.772;2024-01-07T10:09:28;5.70;;;3.80;;
13793;SDS011;31160;49.500;7.772;2024-01-07T10:11:56;5.70;;;3.87;;
13793;SDS011;31160;49.500;7.772;2024-01-07T10:14:23;6.60;;;4.77;;
13793;SDS011;31160;49.500;7.772;2024-01-07T10:16:56;6.13;;;4.30;;
13793;SDS011;31160;49.500;7.772;2024-01-07T10:19:24;5.70;;;3.80;;
13793;SDS011;31160;49.500;7.772;2024-01-07T10:22:02;5.67;;;3.77;;
13793;SDS011;31160;49.500;7.772;2024-01-07T10:24:36;7.50;;;4.33;;
13793;SDS011;31160;49.500;7.772;2024-01-07T10:27:05;6.57;;;4.30;;
13793;SDS011;31160;49.500;7.772;2024-01-07T10:29:33;9.60;;;5.17;;
13793;SDS011;31160;49.500;7.772;2024-01-07T10:32:00;8.83;;;4.70;;
13793;SDS011;31160;49.500;7.772;2024-01-07T10:34:32;8.10;;;5.17;;
13793;SDS011;31160;49.500;7.772;2024-01-07T10:37:00;5.23;;;3.83;;
13793;SDS011;31160;49.500;7.772;2024-01-07T10:39:28;7.27;;;4.20;;
13793;SDS011;31160;49.500;7.772;2024-01-07T10:41:56;7.10;;;4.07;;
13793;SDS011;31160;49.500;7.772;2024-01-07T10:44:28;6.60;;;4.13;;
13793;SDS011;31160;49.500;7.772;2024-01-07T10:46:59;7.47;;;4.73;;
13793;SDS011;31160;49.500;7.772;2024-01-07T10:49:28;6.27;;;4.47;;
13793;SDS011;31160;49.500;7.772;2024-01-07T10:52:04;8.13;;;4.70;;
13793;SDS011;31160;49.500;7.772;2024-01-07T10:54:35;8.17;;;4.73;;
13793;SDS011;31160;49.500;7.772;2024-01-07T10:59:39;6.47;;;4.30;;
13793;SDS011;31160;49.500;7.772;2024-01-07T11:02:07;6.43;;;4.47;;
13793;SDS011;31160;49.500;7.772;2024-01-07T11:07:43;6.40;;;4.87;;
13793;SDS011;31160;49.500;7.772;2024-01-07T11:10:16;6.40;;;4.07;;
13793;SDS011;31160;49.500;7.772;2024-01-07T11:12:53;6.97;;;4.40;;
13793;SDS011;31160;49.500;7.772;2024-01-07T11:16:07;6.90;;;4.17;;
13793;SDS011;31160;49.500;7.772;2024-01-07T11:18:17;8.00;;;6.17;;
13793;SDS011;31160;49.500;7.772;2024-01-07T11:20:48;7.33;;;5.07;;
13793;SDS011;31160;49.500;7.772;2024-01-07T11:23:34;5.83;;;4.00;;
13793;SDS011;31160;49.500;7.772;2024-01-07T11:26:06;6.97;;;4.73;;
13793;SDS011;31160;49.500;7.772;2024-01-07T11:28:45;7.17;;;4.40;;
13793;SDS011;31160;49.500;7.772;2024-01-07T11:31:13;8.20;;;4.87;;
13793;SDS011;31160;49.500;7.772;2024-01-07T11:33:42;5.83;;;4.60;;
13793;SDS011;31160;49.500;7.772;2024-01-07T11:36:10;6.13;;;4.20;;
13793;SDS011;31160;49.500;7.772;2024-01-07T11:38:42;6.07;;;4.10;;
13793;SDS011;31160;49.500;7.772;2024-01-07T11:41:19;5.90;;;3.97;;
13793;SDS011;31160;49.500;7.772;2024-01-07T11:46:22;5.97;;;4.00;;
13793;SDS011;31160;49.500;7.772;2024-01-07T11:48:50;6.57;;;4.33;;
13793;SDS011;31160;49.500;7.772;2024-01-07T11:51:19;5.57;;;3.93;;
13793;SDS011;31160;49.500;7.772;2024-01-07T11:53:46;6.50;;;4.10;;
13793;SDS011;31160;49.500;7.772;2024-01-07T11:56:14;4.90;;;3.57;;
13793;SDS011;31160;49.500;7.772;2024-01-07T11:58:41;5.87;;;4.13;;
13793;SDS011;31160;49.500;7.772;2024-01-07T12:01:08;7.47;;;5.00;;
13793;SDS011;31160;49.500;7.772;2024-01-07T12:03:35;8.43;;;5.20;;
13793;SDS011;31160;49.500;7.772;2024-01-07T12:06:03;5.70;;;3.93;;
13793;SDS011;31160;49.500;7.772;2024-01-07T12:08:30;5.37;;;3.87;;
13793;SDS011;31160;49.500;7.772;2024-01-07T12:10:57;5.47;;;4.17;;
13793;SDS011;31160;49.500;7.772;2024-01-07T12:13:25;8.63;;;4.97;;
13793;SDS011;31160;49.500;7.772;2024-01-07T12:15:52;7.73;;;4.80;;
13793;SDS011;31160;49.500;7.772;2024-01-07T12:18:20;6.57;;;4.00;;
13793;SDS011;31160;49.500;7.772;2024-01-07T12:20:57;5.70;;;4.17;;
13793;SDS011;31160;49.500;7.772;2024-01-07T12:23:27;6.73;;;4.60;;
13793;SDS011;31160;49.500;7.772;2024-01-07T12:25:54;6.27;;;4.17;;
13793;SDS011;31160;49.500;7.772;2024-01-07T12:28:32;11.07;;;5.20;;
13793;SDS011;31160;49.500;7.772;2024-01-07T12:30:59;5.90;;;4.30;;
13793;SDS011;31160;49.500;7.772;2024-01-07T12:33:27;6.70;;;4.47;;
13793;SDS011;31160;49.500;7.772;2024-01-07T12:35:56;8.70;;;4.73;;
13793;SDS011;31160;49.500;7.772;2024-01-07T12:38:24;7.53;;;4.43;;
13793;SDS011;31160;49.500;7.772;2024-01-07T12:40:52;5.60;;;4.07;;
13793;SDS011;31160;49.500;7.772;2024-01-07T12:43:19;4.53;;;3.53;;
13793;SDS011;31160;49.500;7.772;2024-01-07T12:45:49;4.93;;;3.43;;
13793;SDS011;31160;49.500;7.772;2024-01-07T12:48:16;4.70;;;3.37;;
13793;SDS011;31160;49.500;7.772;2024-01-07T12:50:43;5.23;;;3.63;;
13793;SDS011;31160;49.500;7.772;2024-01-07T12:53:10;5.27;;;3.93;;
13793;SDS011;31160;49.500;7.772;2024-01-07T12:55:36;5.63;;;3.90;;
13793;SDS011;31160;49.500;7.772;2024-01-07T12:58:03;6.53;;;3.70;;
13793;SDS011;31160;49.500;7.772;2024-01-07T13:00:30;5.30;;;3.80;;
13793;SDS011;31160;49.500;7.772;2024-01-07T13:02:57;4.83;;;3.60;;
13793;SDS011;31160;49.500;7.772;2024-01-07T13:05:26;5.67;;;3.90;;
13793;SDS011;31160;49.500;7.772;2024-01-07T13:07:54;5.07;;;4.07;;
13793;SDS011;31160;49.500;7.772;2024-01-07T13:10:21;6.53;;;4.17;;
13793;SDS011;31160;49.500;7.772;2024-01-07T13:12:48;7.40;;;4.47;;
13793;SDS011;31160;49.500;7.772;2024-01-07T13:15:20;16.10;;;8.67;;
13793;SDS011;31160;49.500;7.772;2024-01-07T13:17:48;6.27;;;3.90;;
13793;SDS011;31160;49.500;7.772;2024-01-07T13:20:15;6.17;;;3.87;;
13793;SDS011;31160;49.500;7.772;2024-01-07T13:22:46;6.03;;;4.07;;
13793;SDS011;31160;49.500;7.772;2024-01-07T13:25:13;5.47;;;4.00;;
13793;SDS011;31160;49.500;7.772;2024-01-07T13:27:40;5.27;;;3.97;;
13793;SDS011;31160;49.500;7.772;2024-01-07T13:30:08;6.73;;;4.57;;
13793;SDS011;31160;49.500;7.772;2024-01-07T13:32:36;5.43;;;3.80;;
13793;SDS011;31160;49.500;7.772;2024-01-07T13:35:04;7.23;;;4.17;;
13793;SDS011;31160;49.500;7.772;2024-01-07T13:37:32;5.90;;;3.73;;
13793;SDS011;31160;49.500;7.772;2024-01-07T13:39:58;6.30;;;4.20;;
13793;SDS011;31160;49.500;7.772;2024-01-07T13:42:27;5.93;;;4.10;;
13793;SDS011;31160;49.500;7.772;2024-01-07T13:44:54;5.47;;;3.73;;
13793;SDS011;31160;49.500;7.772;2024-01-07T13:47:20;6.13;;;4.30;;
13793;SDS011;31160;49.500;7.772;2024-01-07T13:49:47;8.40;;;5.00;;
13793;SDS011;31160;49.500;7.772;2024-01-07T13:52:14;7.10;;;4.37;;
13793;SDS011;31160;49.500;7.772;2024-01-07T13:54:42;7.80;;;5.03;;
13793;SDS011;31160;49.500;7.772;2024-01-07T13:57:09;7.30;;;4.80;;
13793;SDS011;31160;49.500;7.772;2024-01-07T13:59:35;7.70;;;4.70;;
13793;SDS011;31160;49.500;7.772;2024-01-07T14:02:02;6.40;;;4.23;;
13793;SDS011;31160;49.500;7.772;2024-01-07T14:04:31;7.03;;;5.07;;
13793;SDS011;31160;49.500;7.772;2024-01-07T14:06:58;8.63;;;4.93;;
13793;SDS011;31160;49.500;7.772;2024-01-07T14:09:25;6.83;;;4.50;;
13793;SDS011;31160;49.500;7.772;2024-01-07T14:11:51;7.50;;;4.87;;
13793;SDS011;31160;49.500;7.772;2024-01-07T14:14:18;6.80;;;4.83;;
13793;SDS011;31160;49.500;7.772;2024-01-07T14:16:45;7.40;;;4.80;;
13793;SDS011;31160;49.500;7.772;2024-01-07T14:19:12;7.97;;;5.33;;
13793;SDS011;31160;49.500;7.772;2024-01-07T14:21:41;9.40;;;5.40;;
13793;SDS011;31160;49.500;7.772;2024-01-07T14:24:07;8.73;;;5.27;;
13793;SDS011;31160;49.500;7.772;2024-01-07T14:26:34;6.73;;;4.80;;
13793;SDS011;31160;49.500;7.772;2024-01-07T14:29:01;7.43;;;5.13;;
13793;SDS011;31160;49.500;7.772;2024-01-07T14:31:42;9.70;;;6.07;;
13793;SDS011;31160;49.500;7.772;2024-01-07T14:34:09;9.03;;;5.57;;
13793;SDS011;31160;49.500;7.772;2024-01-07T14:36:39;9.83;;;5.07;;
13793;SDS011;31160;49.500;7.772;2024-01-07T14:39:07;10.47;;;6.30;;
13793;SDS011;31160;49.500;7.772;2024-01-07T14:41:36;7.20;;;4.73;;
13793;SDS011;31160;49.500;7.772;2024-01-07T14:44:02;6.47;;;4.63;;
13793;SDS011;31160;49.500;7.772;2024-01-07T14:46:36;6.93;;;4.73;;
13793;SDS011;31160;49.500;7.772;2024-01-07T14:49:03;8.60;;;5.60;;
13793;SDS011;31160;49.500;7.772;2024-01-07T14:51:31;8.00;;;4.97;;
13793;SDS011;31160;49.500;7.772;2024-01-07T14:53:58;7.30;;;4.70;;
13793;SDS011;31160;49.500;7.772;2024-01-07T14:56:26;8.40;;;4.70;;
13793;SDS011;31160;49.500;7.772;2024-01-07T14:58:52;6.90;;;4.50;;